KHEZ/HEZ METAR and TAF weather

Enter ICAO airport designator
Station Type Date Time Source
KHEZ METAR 2019/06/26 05:56 UTC NOAA

KHEZ 260556Z AUTO 14004KT 10SM CLR 22/21 A3012 RMK AO2 SLP198 60000 T02170211 10228 20217 58005


Station Type Date Time Source
KHEZ Decoded METAR 2019/06/26 05:56 UTC NOAA

Natchez, Hardy-Anders Field Natchez-Adams County Airport, MS, United States (KHEZ) 31-37N 091-18W
Jun 26, 2019 - 01:56 AM EDT / 2019.06.26 0556 UTC
Wind: from the SE (140 degrees) at 5 MPH (4 KT):0
Visibility: 10 mile(s):0
Sky conditions: clear
Temperature: 71.1 F (21.7 C)
Dew Point: 70.0 F (21.1 C)
Relative Humidity: 96%
Pressure (altimeter): 30.12 in. Hg (1019 hPa)
Pressure tendency: 0.01 inches (0.5 hPa) lower than three hours ago
ob: KHEZ 260556Z AUTO 14004KT 10SM CLR 22/21 A3012 RMK AO2 SLP198 60000 T02170211 10228 20217 58005
cycle: 6

Station Type Date Time Source
KHEZ TAF UTC NOAA

Error!

Example: see airport list